Time;durP1;ratioP1;P1;durP2;ratioP2;P2;SDS_P1;SDS_P2;PMS_P1;PMS_P2;Temp;Humidity;BMP_temperature;BMP_pressure;BME280_temperature;BME280_humidity;BME280_pressure;Samples;Min_cycle;Max_cycle;Signal;HPM_P1;HPM_P2
2023/07/05 00:01:22;;;;;;;2.70;1.70;;;;;;;17.71;100.00;99724.66;4947401;28;20569;-74
2023/07/05 00:03:49;;;;;;;2.47;1.70;;;;;;;17.74;100.00;99748.06;4967259;28;20218;-75
2023/07/05 00:06:14;;;;;;;2.00;1.80;;;;;;;17.81;100.00;99791.38;4953910;28;20210;-76
2023/07/05 00:08:40;;;;;;;2.53;1.73;;;;;;;17.92;100.00;99824.88;4983376;28;20797;-75
2023/07/05 00:11:08;;;;;;;1.80;1.70;;;;;;;18.06;100.00;99841.75;4942317;28;20214;-74
2023/07/05 00:13:34;;;;;;;2.10;1.90;;;;;;;18.22;100.00;99832.25;4962329;28;20182;-75
2023/07/05 00:16:00;;;;;;;4.87;2.60;;;;;;;18.33;100.00;99813.38;4951209;28;20293;-75
2023/07/05 00:18:27;;;;;;;4.27;2.60;;;;;;;18.40;100.00;99783.34;4965020;28;20189;-74
2023/07/05 00:20:53;;;;;;;4.17;2.50;;;;;;;18.45;100.00;99770.00;4950494;28;20319;-75
2023/07/05 00:23:19;;;;;;;2.77;2.10;;;;;;;18.47;100.00;99754.19;4951687;28;20278;-74
2023/07/05 00:25:44;;;;;;;2.57;2.03;;;;;;;18.49;100.00;99747.13;4948856;28;20298;-74
2023/07/05 00:28:09;;;;;;;3.17;2.17;;;;;;;18.50;100.00;99748.81;4958864;28;20294;-75
2023/07/05 00:30:35;;;;;;;2.57;2.37;;;;;;;18.51;100.00;99735.66;4959333;28;20275;-75
2023/07/05 00:33:00;;;;;;;2.00;1.80;;;;;;;18.54;100.00;99745.94;4979901;28;20195;-73
2023/07/05 00:35:25;;;;;;;3.13;2.50;;;;;;;18.56;100.00;99735.41;4956055;28;20276;-75
2023/07/05 00:37:51;;;;;;;2.33;2.03;;;;;;;18.57;100.00;99745.78;4947588;28;20201;-74
2023/07/05 00:40:16;;;;;;;2.97;2.40;;;;;;;18.61;100.00;99758.75;4966124;28;20194;-75
2023/07/05 00:42:42;;;;;;;2.33;2.13;;;;;;;18.62;100.00;99763.06;4948444;28;20210;-73
2023/07/05 00:45:10;;;;;;;2.33;2.10;;;;;;;18.64;100.00;99782.19;4949483;28;20740;-75
2023/07/05 00:47:39;;;;;;;3.63;2.20;;;;;;;18.63;100.00;99812.78;4941046;28;20224;-75
2023/07/05 00:50:20;;;;;;;3.53;2.50;;;;;;;18.63;100.00;99849.47;4949239;28;20290;-74
2023/07/05 00:52:46;;;;;;;2.57;2.37;;;;;;;18.62;100.00;99844.31;4948228;28;20196;-74
2023/07/05 00:55:13;;;;;;;3.27;2.20;;;;;;;18.63;100.00;99835.53;4948873;29;20187;-74
2023/07/05 00:57:42;;;;;;;3.17;2.53;;;;;;;18.63;100.00;99835.53;4940008;28;20888;-74
2023/07/05 01:00:12;;;;;;;5.63;2.87;;;;;;;18.63;100.00;99802.28;4943030;28;20217;-74
2023/07/05 01:02:40;;;;;;;2.50;2.30;;;;;;;18.65;100.00;99786.50;4946425;28;20655;-75
2023/07/05 01:05:08;;;;;;;2.60;2.40;;;;;;;18.67;100.00;99782.88;4962678;28;20196;-74
2023/07/05 01:07:34;;;;;;;2.50;2.30;;;;;;;18.68;100.00;99768.00;4946942;28;20270;-73
2023/07/05 01:09:59;;;;;;;3.30;3.10;;;;;;;18.64;100.00;99774.31;4949596;28;20198;-75
2023/07/05 01:12:43;;;;;;;3.13;2.87;;;;;;;18.63;100.00;99777.88;4948841;28;20304;-75
2023/07/05 01:15:59;;;;;;;3.60;2.70;;;;;;;18.57;100.00;99785.09;4949484;28;20240;-75
2023/07/05 01:18:46;;;;;;;2.80;2.60;;;;;;;18.54;100.00;99797.53;4954811;28;20302;-75
2023/07/05 01:21:22;;;;;;;2.87;2.43;;;;;;;18.53;100.00;99811.53;4945008;28;20194;-74
2023/07/05 01:24:09;;;;;;;3.17;2.87;;;;;;;18.51;100.00;99813.38;4951040;28;20199;-75
2023/07/05 01:26:46;;;;;;;3.00;2.77;;;;;;;18.51;100.00;99801.16;4947355;28;20695;-74
2023/07/05 01:29:42;;;;;;;3.13;2.70;;;;;;;18.52;100.00;99791.50;4947026;28;20201;-74
2023/07/05 01:32:16;;;;;;;3.33;2.70;;;;;;;18.54;100.00;99805.38;4945384;28;20958;-75
2023/07/05 01:34:55;;;;;;;3.90;2.60;;;;;;;18.55;100.00;99821.03;4952589;28;20672;-74
2023/07/05 01:37:39;;;;;;;4.57;3.20;;;;;;;18.61;100.00;99813.78;4940899;28;20210;-74
2023/07/05 01:40:15;;;;;;;5.33;2.87;;;;;;;18.61;100.00;99791.03;4947743;28;20935;-75
2023/07/05 01:42:43;;;;;;;3.97;2.90;;;;;;;18.61;100.00;99796.28;4952890;28;22491;-75
2023/07/05 01:45:09;;;;;;;3.70;3.30;;;;;;;18.62;100.00;99782.25;4953403;28;20278;-75
2023/07/05 01:48:05;;;;;;;3.87;2.90;;;;;;;18.62;100.00;99774.38;4952074;28;20233;-75
2023/07/05 01:50:42;;;;;;;3.17;2.83;;;;;;;18.61;100.00;99777.09;4950027;28;20200;-75
2023/07/05 01:53:24;;;;;;;2.80;2.50;;;;;;;18.60;100.00;99765.78;4954031;28;20188;-74
2023/07/05 01:56:00;;;;;;;2.97;2.67;;;;;;;18.61;100.00;99769.22;4947501;28;20668;-75
2023/07/05 01:58:28;;;;;;;3.73;2.60;;;;;;;18.60;100.00;99773.66;4948035;28;20180;-75
2023/07/05 02:00:57;;;;;;;2.67;2.47;;;;;;;18.59;100.00;99775.41;4947351;28;20188;-74
2023/07/05 02:03:24;;;;;;;3.63;2.67;;;;;;;18.59;100.00;99772.78;4956109;28;20210;-75
2023/07/05 02:05:50;;;;;;;3.10;2.90;;;;;;;18.57;100.00;99768.56;4950262;28;20208;-74
2023/07/05 02:08:17;;;;;;;3.60;2.90;;;;;;;18.55;100.00;99750.25;4950219;28;20200;-74
2023/07/05 02:10:43;;;;;;;3.63;2.80;;;;;;;18.52;100.00;99749.59;4953245;28;20301;-75
2023/07/05 02:13:10;;;;;;;5.80;3.17;;;;;;;18.49;100.00;99750.59;4952563;28;20937;-74
2023/07/05 02:15:38;;;;;;;3.07;2.33;;;;;;;18.47;100.00;99747.19;4955939;28;20231;-75
2023/07/05 02:18:04;;;;;;;3.07;2.47;;;;;;;18.46;100.00;99747.25;4950325;28;20252;-75
2023/07/05 02:20:30;;;;;;;3.03;2.77;;;;;;;18.44;100.00;99747.34;4978737;28;20304;-74
2023/07/05 02:22:56;;;;;;;2.43;2.23;;;;;;;18.43;100.00;99745.66;4950923;28;20195;-75
2023/07/05 02:25:21;;;;;;;2.60;2.23;;;;;;;18.43;100.00;99748.28;4951067;28;20731;-75
2023/07/05 02:27:47;;;;;;;2.47;2.27;;;;;;;18.44;100.00;99749.97;4966226;28;20256;-75
2023/07/05 02:30:13;;;;;;;2.57;2.37;;;;;;;18.45;100.00;99741.19;4969405;28;20205;-75
2023/07/05 02:32:39;;;;;;;2.70;2.50;;;;;;;18.46;100.00;99748.13;4949457;28;20272;-75
2023/07/05 02:35:05;;;;;;;2.83;2.50;;;;;;;18.45;100.00;99738.56;4963155;28;20201;-75
2023/07/05 02:37:32;;;;;;;2.57;2.30;;;;;;;18.42;100.00;99736.09;4980127;28;20224;-75
2023/07/05 02:39:57;;;;;;;3.77;2.87;;;;;;;18.41;100.00;99723.91;4965077;28;20199;-74
2023/07/05 02:42:24;;;;;;;2.83;2.53;;;;;;;18.38;100.00;99724.06;4974251;28;20278;-75
2023/07/05 02:44:51;;;;;;;3.83;3.00;;;;;;;18.39;100.00;99721.38;4951688;28;20191;-74
2023/07/05 02:47:18;;;;;;;3.00;2.80;;;;;;;18.39;100.00;99723.16;4949761;28;20722;-75
2023/07/05 02:49:43;;;;;;;2.80;2.60;;;;;;;18.39;100.00;99723.16;4955505;28;20192;-74
2023/07/05 02:52:09;;;;;;;4.30;2.70;;;;;;;18.40;100.00;99730.09;4955549;28;20311;-75
2023/07/05 02:54:35;;;;;;;2.90;2.70;;;;;;;18.41;100.00;99723.91;4952386;28;20194;-74
2023/07/05 02:57:01;;;;;;;3.00;2.80;;;;;;;18.42;100.00;99721.25;4962096;28;20265;-75
2023/07/05 02:59:26;;;;;;;3.70;2.40;;;;;;;18.41;100.00;99724.78;4953573;28;20193;-75
2023/07/05 03:01:52;;;;;;;3.17;2.87;;;;;;;18.41;100.00;99727.41;4950001;28;20263;-74
2023/07/05 03:04:17;;;;;;;2.83;2.60;;;;;;;18.40;100.00;99724.84;4972486;28;20190;-74
2023/07/05 03:06:42;;;;;;;2.50;2.30;;;;;;;18.40;100.00;99728.31;4957407;28;20304;-75
2023/07/05 03:09:08;;;;;;;3.03;2.73;;;;;;;18.37;100.00;99720.63;4951236;28;20232;-75
2023/07/05 03:11:33;;;;;;;4.77;2.70;;;;;;;18.38;100.00;99724.06;4981840;28;20257;-75
2023/07/05 03:13:58;;;;;;;3.27;2.40;;;;;;;18.37;100.00;99728.47;4982516;28;20213;-73
2023/07/05 03:16:24;;;;;;;2.93;2.40;;;;;;;18.37;100.00;99728.47;4987835;28;20205;-74
2023/07/05 03:18:49;;;;;;;2.90;2.57;;;;;;;18.38;100.00;99732.78;4954982;28;20608;-75
2023/07/05 03:21:14;;;;;;;4.57;2.67;;;;;;;18.41;100.00;99729.16;4971129;28;20210;-75
2023/07/05 03:23:40;;;;;;;3.33;2.73;;;;;;;18.41;100.00;99729.16;4966507;28;20185;-74
2023/07/05 03:26:09;;;;;;;3.27;2.90;;;;;;;18.46;100.00;99735.03;4947103;28;20688;-74
2023/07/05 03:28:36;;;;;;;4.40;2.60;;;;;;;18.47;100.00;99730.63;4956335;28;20198;-75
2023/07/05 03:31:06;;;;;;;3.30;2.20;;;;;;;18.49;100.00;99737.50;4957178;28;20219;-74
2023/07/05 03:33:33;;;;;;;3.03;2.37;;;;;;;18.52;100.00;99736.47;4960054;28;20184;-75
2023/07/05 03:36:05;;;;;;;2.70;2.50;;;;;;;18.51;100.00;99733.03;4949337;28;20577;-75
2023/07/05 03:38:32;;;;;;;2.83;2.47;;;;;;;18.53;100.00;99735.56;4952926;28;20277;-74
2023/07/05 03:41:05;;;;;;;2.80;2.60;;;;;;;18.55;100.00;99741.56;4947289;28;20188;-74
2023/07/05 03:43:35;;;;;;;3.07;2.80;;;;;;;18.58;100.00;99742.25;4948210;28;20260;-75
2023/07/05 03:46:01;;;;;;;2.57;2.37;;;;;;;18.62;100.00;99744.72;4957470;28;20304;-74
2023/07/05 03:48:30;;;;;;;2.40;2.20;;;;;;;18.66;100.00;99746.28;4960498;28;20187;-74
2023/07/05 03:50:56;;;;;;;2.27;2.07;;;;;;;18.69;100.00;99749.56;4947479;28;20323;-75
2023/07/05 03:53:22;;;;;;;2.57;2.23;;;;;;;18.71;100.00;99745.09;4947902;28;20670;-73
2023/07/05 03:55:47;;;;;;;2.20;2.10;;;;;;;18.74;100.00;99742.34;4954238;28;20220;-75
2023/07/05 03:58:13;;;;;;;2.47;2.20;;;;;;;18.76;100.00;99736.13;4954453;28;20296;-75
2023/07/05 04:00:38;;;;;;;2.70;1.97;;;;;;;18.77;100.00;99737.81;4955479;28;20192;-75
2023/07/05 04:03:04;;;;;;;2.30;2.00;;;;;;;18.74;100.00;99729.22;4961090;28;20515;-75
2023/07/05 04:05:29;;;;;;;2.27;2.10;;;;;;;18.75;100.00;99732.69;4953719;28;20191;-74
2023/07/05 04:07:54;;;;;;;2.60;2.40;;;;;;;18.75;100.00;99735.31;4949480;28;20321;-75
2023/07/05 04:10:20;;;;;;;2.50;2.30;;;;;;;18.77;100.00;99733.44;4979684;28;20248;-75
2023/07/05 04:12:45;;;;;;;3.07;2.27;;;;;;;18.79;100.00;99728.13;4947104;28;20208;-75
2023/07/05 04:15:10;;;;;;;2.43;2.23;;;;;;;18.82;100.00;99722.72;4946531;28;20235;-74
2023/07/05 04:17:35;;;;;;;3.43;2.40;;;;;;;18.84;100.00;99724.31;4948593;28;20288;-75
2023/07/05 04:20:03;;;;;;;2.53;2.33;;;;;;;18.88;100.00;99719.78;4948553;28;20608;-74
2023/07/05 04:22:30;;;;;;;2.10;1.90;;;;;;;18.92;100.00;99725.72;4950986;28;20248;-73
2023/07/05 04:24:56;;;;;;;2.77;2.30;;;;;;;18.95;100.00;99715.94;4946378;28;20680;-74
2023/07/05 04:27:21;;;;;;;2.50;2.30;;;;;;;19.01;100.00;99717.38;4947073;28;20216;-74
2023/07/05 04:29:46;;;;;;;2.70;2.50;;;;;;;19.02;100.00;99704.19;4947924;28;20190;-75
2023/07/05 04:32:12;;;;;;;2.50;2.30;;;;;;;19.05;100.00;99687.44;4949500;28;20310;-74
2023/07/05 04:34:40;;;;;;;2.30;2.20;;;;;;;19.10;100.00;99680.19;4979117;28;20264;-75
2023/07/05 04:37:05;;;;;;;2.40;1.93;;;;;;;19.21;100.00;99681.38;4947575;28;20302;-75
2023/07/05 04:39:31;;;;;;;2.70;2.17;;;;;;;19.28;100.00;99695.84;4979746;28;20271;-74
2023/07/05 04:41:57;;;;;;;2.53;2.33;;;;;;;19.31;100.00;99714.03;4956587;28;20654;-75
2023/07/05 04:44:22;;;;;;;2.50;2.30;;;;;;;19.31;100.00;99740.25;4953897;28;20196;-74
2023/07/05 04:46:48;;;;;;;2.93;2.63;;;;;;;19.29;100.00;99758.72;4952098;28;20537;-75
2023/07/05 04:49:13;;;;;;;4.40;3.00;;;;;;;19.28;100.00;99779.81;4963396;28;20252;-75
2023/07/05 04:51:38;;;;;;;3.87;3.03;;;;;;;19.19;100.00;99783.75;4962980;28;20606;-75
2023/07/05 04:54:04;;;;;;;4.63;3.20;;;;;;;19.08;100.00;99791.31;4947269;28;20650;-74
2023/07/05 04:56:29;;;;;;;3.83;2.90;;;;;;;18.97;100.00;99811.09;4947790;28;20291;-77
2023/07/05 04:58:56;;;;;;;4.80;2.97;;;;;;;18.93;100.00;99806.91;4941444;28;21027;-75
2023/07/05 05:01:21;;;;;;;2.87;2.67;;;;;;;18.83;100.00;99814.38;4937763;28;20190;-73
2023/07/05 05:03:47;;;;;;;3.77;2.80;;;;;;;18.78;100.00;99815.53;4947084;28;20194;-75
2023/07/05 05:06:12;;;;;;;3.37;3.07;;;;;;;18.74;100.00;99825.34;4941990;28;20215;-76
2023/07/05 05:08:38;;;;;;;4.20;2.73;;;;;;;18.69;100.00;99822.09;4952684;28;20194;-75
2023/07/05 05:11:04;;;;;;;2.90;2.60;;;;;;;18.64;100.00;99819.72;4964385;28;20238;-75
2023/07/05 05:13:33;;;;;;;3.67;2.80;;;;;;;18.63;100.00;99810.16;4949969;28;20210;-75
2023/07/05 05:16:00;;;;;;;3.17;2.77;;;;;;;18.62;100.00;99818.94;4962274;28;20217;-75
2023/07/05 05:18:28;;;;;;;3.67;2.90;;;;;;;18.66;100.00;99827.50;4949449;28;20176;-75
2023/07/05 05:20:53;;;;;;;3.00;2.70;;;;;;;18.67;100.00;99835.28;4968600;28;20199;-75
2023/07/05 05:23:19;;;;;;;3.30;2.50;;;;;;;18.68;100.00;99837.00;4951315;28;20621;-75
2023/07/05 05:25:45;;;;;;;3.90;2.47;;;;;;;18.68;100.00;99839.59;4953879;28;20703;-73
2023/07/05 05:28:12;;;;;;;4.03;2.80;;;;;;;18.68;100.00;99850.09;4951255;28;20207;-73
2023/07/05 05:30:38;;;;;;;4.20;3.17;;;;;;;18.69;100.00;99837.81;4950111;28;20266;-74
2023/07/05 05:33:04;;;;;;;4.67;3.33;;;;;;;18.73;100.00;99845.47;4946963;28;21016;-75
2023/07/05 05:35:31;;;;;;;3.67;3.03;;;;;;;18.75;100.00;99853.25;4978502;28;20196;-75
2023/07/05 05:37:57;;;;;;;3.73;2.90;;;;;;;18.76;100.00;99854.09;4967599;28;20183;-74
2023/07/05 05:40:22;;;;;;;4.03;3.00;;;;;;;18.80;100.00;99863.50;4955487;28;20225;-74
2023/07/05 05:42:48;;;;;;;3.40;2.83;;;;;;;18.89;100.00;99866.50;4952230;28;21484;-74
2023/07/05 05:45:13;;;;;;;4.23;3.17;;;;;;;19.03;100.00;99872.88;4951222;28;20204;-74
2023/07/05 05:47:39;;;;;;;3.30;3.00;;;;;;;19.13;100.00;99871.47;4950755;28;20265;-75
2023/07/05 05:50:05;;;;;;;3.20;2.90;;;;;;;19.22;100.00;99878.00;4949316;28;20193;-75
2023/07/05 05:52:31;;;;;;;4.27;3.23;;;;;;;19.28;100.00;99882.94;4978148;28;20706;-74
2023/07/05 05:54:57;;;;;;;4.00;2.93;;;;;;;19.41;100.00;99879.69;4947795;28;20193;-75
2023/07/05 05:57:22;;;;;;;3.03;2.73;;;;;;;19.44;100.00;99898.72;4947537;28;20217;-75
2023/07/05 05:59:47;;;;;;;5.70;3.67;;;;;;;19.42;100.00;99894.50;4949424;28;20342;-74
2023/07/05 06:02:13;;;;;;;4.00;2.77;;;;;;;19.39;100.00;99902.53;4947273;28;20238;-75
2023/07/05 06:04:38;;;;;;;2.80;2.37;;;;;;;19.38;100.00;99898.19;4948582;28;20201;-74
2023/07/05 06:07:03;;;;;;;2.67;2.03;;;;;;;19.33;100.00;99909.81;4942266;28;20704;-74
2023/07/05 06:09:29;;;;;;;2.63;2.33;;;;;;;19.39;100.00;99908.63;4946651;28;20196;-75
2023/07/05 06:11:54;;;;;;;2.00;1.80;;;;;;;19.46;100.00;99917.88;4946529;28;20304;-75
2023/07/05 06:14:19;;;;;;;2.03;1.77;;;;;;;19.69;100.00;99933.34;4945085;28;20198;-74
2023/07/05 06:16:45;;;;;;;2.37;1.93;;;;;;;19.78;100.00;99931.06;4944064;28;20229;-74
2023/07/05 06:19:10;;;;;;;1.90;1.80;;;;;;;19.75;100.00;99949.63;4944897;28;20218;-75
2023/07/05 06:21:36;;;;;;;2.67;1.90;;;;;;;19.73;100.00;99948.88;4947087;28;20663;-75
2023/07/05 06:24:01;;;;;;;3.43;2.50;;;;;;;19.63;100.00;99960.75;4946030;28;20216;-73
2023/07/05 06:26:26;;;;;;;2.97;2.40;;;;;;;19.52;100.00;99966.56;4958106;28;20214;-75
2023/07/05 06:28:52;;;;;;;2.90;2.60;;;;;;;19.44;100.00;99966.13;4948488;28;20201;-74
2023/07/05 06:31:18;;;;;;;2.80;2.60;;;;;;;19.43;100.00;99973.16;4948025;28;20240;-74
2023/07/05 06:33:43;;;;;;;4.07;3.33;;;;;;;19.52;100.00;99990.19;4961286;28;20608;-75
2023/07/05 06:36:09;;;;;;;2.90;2.70;;;;;;;19.59;100.00;99990.72;4946255;28;20298;-75
2023/07/05 06:38:35;;;;;;;2.83;2.63;;;;;;;19.70;100.00;99993.66;4960660;28;20658;-74
2023/07/05 06:41:00;;;;;;;2.90;2.70;;;;;;;19.80;100.00;99991.41;4948010;28;20190;-75
2023/07/05 06:43:27;;;;;;;2.77;2.50;;;;;;;20.06;100.00;99997.09;4949111;28;20212;-73
2023/07/05 06:45:54;;;;;;;3.23;2.70;;;;;;;20.41;100.00;100005.69;5000565;28;20198;-74
2023/07/05 06:48:21;;;;;;;3.10;2.80;;;;;;;20.88;100.00;100010.19;4956476;28;20191;-74
2023/07/05 06:50:54;;;;;;;2.70;2.50;;;;;;;21.21;100.00;100017.94;4947651;28;20179;-75
2023/07/05 06:53:20;;;;;;;4.23;3.00;;;;;;;21.31;97.56;100011.19;4963610;28;20660;-75
2023/07/05 06:55:48;;;;;;;3.80;3.40;;;;;;;21.29;94.22;100020.97;4946454;28;20215;-75
2023/07/05 06:58:14;;;;;;;3.43;2.90;;;;;;;21.38;91.46;100027.47;4951123;28;20245;-75
2023/07/05 07:00:39;;;;;;;3.93;3.63;;;;;;;21.67;91.61;100034.66;4951144;28;20249;-75
2023/07/05 07:03:05;;;;;;;3.53;3.23;;;;;;;21.98;90.84;100038.06;4949350;28;20270;-75
2023/07/05 07:05:31;;;;;;;3.27;2.97;;;;;;;22.21;90.17;100036.66;4981855;28;20277;-75
2023/07/05 07:07:56;;;;;;;4.43;3.43;;;;;;;22.43;85.85;100041.47;4949146;28;20218;-75
2023/07/05 07:10:22;;;;;;;3.67;3.23;;;;;;;22.65;84.73;100040.97;4965359;28;20218;-75
2023/07/05 07:12:47;;;;;;;3.53;3.23;;;;;;;22.57;83.72;100051.13;4950953;28;20214;-74
2023/07/05 07:15:12;;;;;;;4.00;3.70;;;;;;;22.50;83.93;100063.03;4951643;28;20194;-75
2023/07/05 07:17:38;;;;;;;4.47;4.07;;;;;;;22.54;84.60;100059.22;4948462;28;20218;-75
2023/07/05 07:20:04;;;;;;;4.23;3.87;;;;;;;22.51;83.63;100059.44;4965185;28;20191;-74
2023/07/05 07:22:29;;;;;;;4.70;3.87;;;;;;;22.46;84.43;100059.72;4945168;28;20213;-75
2023/07/05 07:24:55;;;;;;;4.13;3.73;;;;;;;22.89;83.79;100063.22;4978629;28;20237;-75
2023/07/05 07:27:20;;;;;;;4.00;3.70;;;;;;;23.34;83.62;100058.56;4947857;28;20222;-74
2023/07/05 07:29:45;;;;;;;4.33;3.93;;;;;;;23.96;81.19;100064.13;4947048;28;20698;-75
2023/07/05 07:32:11;;;;;;;3.80;3.50;;;;;;;24.41;78.71;100053.13;4943327;28;20218;-75
2023/07/05 07:34:36;;;;;;;4.13;3.70;;;;;;;24.49;76.83;100054.28;4981781;28;20183;-75
2023/07/05 07:37:02;;;;;;;4.33;3.93;;;;;;;24.68;77.23;100054.75;4950128;28;20585;-75
2023/07/05 07:39:29;;;;;;;4.47;3.77;;;;;;;24.96;77.08;100050.94;4955662;28;20187;-75
2023/07/05 07:41:55;;;;;;;4.05;3.72;;;;;;;24.98;75.05;100054.34;4955233;28;20183;-75
2023/07/05 07:44:21;;;;;;;4.40;4.00;;;;;;;25.33;75.34;100056.19;4949321;28;20206;-75
2023/07/05 07:46:46;;;;;;;4.38;3.97;;;;;;;25.75;74.78;100066.34;4945429;28;20210;-75
2023/07/05 07:49:12;;;;;;;4.72;4.32;;;;;;;26.08;72.36;100069.13;4942790;28;20266;-75
2023/07/05 07:51:39;;;;;;;4.90;4.50;;;;;;;26.02;71.92;100060.69;4948260;28;20220;-75
2023/07/05 07:54:08;;;;;;;5.40;4.38;;;;;;;26.15;72.04;100073.03;4941311;28;20743;-76
2023/07/05 07:56:34;;;;;;;5.13;4.15;;;;;;;26.02;70.91;100067.81;4948971;28;20231;-76
2023/07/05 07:59:00;;;;;;;4.53;3.97;;;;;;;26.03;70.93;100072.97;4949098;28;20618;-75
2023/07/05 08:01:32;;;;;;;4.40;4.00;;;;;;;25.97;69.58;100078.78;4948819;28;20179;-75
2023/07/05 08:03:59;;;;;;;4.93;4.43;;;;;;;26.04;68.54;100087.09;4950050;28;20281;-76
2023/07/05 08:06:46;;;;;;;4.82;4.05;;;;;;;25.82;68.86;100093.22;4979512;28;20229;-75
2023/07/05 08:09:23;;;;;;;4.25;3.85;;;;;;;25.83;68.75;100095.72;4954615;28;20249;-75
2023/07/05 08:11:49;;;;;;;5.10;4.57;;;;;;;26.31;67.51;100094.75;4947877;28;21010;-74
2023/07/05 08:14:17;;;;;;;4.03;3.72;;;;;;;26.39;65.92;100090.63;4940368;28;20191;-75
2023/07/05 08:16:43;;;;;;;4.53;3.75;;;;;;;26.65;62.44;100093.88;4945482;28;20225;-75
2023/07/05 08:19:09;;;;;;;4.40;3.47;;;;;;;26.78;63.04;100101.69;4943668;28;20226;-75
2023/07/05 08:21:36;;;;;;;3.70;3.40;;;;;;;26.81;61.60;100117.41;4947953;28;20759;-75
2023/07/05 08:24:02;;;;;;;4.82;3.70;;;;;;;26.50;61.43;100116.31;4947675;28;20659;-76
2023/07/05 08:26:28;;;;;;;4.15;3.72;;;;;;;26.57;62.15;100115.72;4976360;28;20230;-75
2023/07/05 08:28:54;;;;;;;4.22;3.63;;;;;;;26.60;62.13;100114.63;4949175;28;20695;-75
2023/07/05 08:31:19;;;;;;;7.50;3.70;;;;;;;26.33;61.16;100114.03;4942194;28;20210;-74
2023/07/05 08:33:45;;;;;;;4.25;3.65;;;;;;;26.54;62.44;100107.16;4942544;28;20178;-74
2023/07/05 08:36:32;;;;;;;3.60;3.30;;;;;;;26.50;61.75;100117.16;4960342;28;20210;-75
2023/07/05 08:38:59;;;;;;;4.57;3.25;;;;;;;26.43;61.19;100123.94;4949231;28;20235;-75
2023/07/05 08:41:33;;;;;;;3.67;3.25;;;;;;;26.50;60.39;100116.31;4947630;28;20183;-75
2023/07/05 08:44:22;;;;;;;3.42;3.13;;;;;;;26.14;60.48;100127.88;4948211;28;20249;-74
2023/07/05 08:47:13;;;;;;;4.15;3.13;;;;;;;25.88;60.08;100124.53;4995867;28;20218;-74
2023/07/05 08:49:46;;;;;;;4.43;2.92;;;;;;;25.50;60.73;100131.75;4960775;28;20768;-76
2023/07/05 08:52:35;;;;;;;4.93;4.47;;;;;;;25.00;62.62;100136.31;4949315;28;20217;-75
2023/07/05 08:55:05;;;;;;;3.73;3.40;;;;;;;24.79;62.78;100143.03;4946061;28;20191;-75
2023/07/05 08:57:37;;;;;;;4.00;3.03;;;;;;;24.48;63.59;100141.66;4949187;28;20206;-75
2023/07/05 09:00:11;;;;;;;3.63;3.30;;;;;;;24.28;63.97;100132.47;4947017;28;20179;-76
2023/07/05 09:02:38;;;;;;;6.93;5.10;;;;;;;23.90;66.01;100140.22;4944584;28;20670;-75
2023/07/05 09:05:15;;;;;;;5.97;4.13;;;;;;;23.69;66.18;100134.59;4963890;28;20190;-75
2023/07/05 09:07:49;;;;;;;5.77;4.50;;;;;;;23.65;66.37;100135.75;4945809;28;20572;-75
2023/07/05 09:10:41;;;;;;;6.40;5.70;;;;;;;23.64;67.40;100147.28;4943775;28;20187;-75
2023/07/05 09:13:36;;;;;;;5.23;3.67;;;;;;;23.63;66.04;100139.44;4949907;28;20211;-75
2023/07/05 09:16:12;;;;;;;4.67;3.87;;;;;;;23.43;67.55;100142.44;4947439;28;20229;-74
2023/07/05 09:19:05;;;;;;;4.33;3.93;;;;;;;23.54;67.23;100146.16;4937985;28;20183;-75
2023/07/05 09:21:39;;;;;;;3.60;3.13;;;;;;;23.51;65.58;100149.88;4978731;28;20203;-75
2023/07/05 09:24:19;;;;;;;3.67;3.30;;;;;;;22.97;66.52;100150.66;4946379;28;20185;-74
2023/07/05 09:26:52;;;;;;;4.43;3.80;;;;;;;22.87;66.23;100154.81;4947067;28;20872;-75
2023/07/05 09:29:20;;;;;;;5.53;3.47;;;;;;;22.64;66.54;100163.22;4947336;28;20187;-74
2023/07/05 09:31:48;;;;;;;4.20;3.00;;;;;;;22.63;66.89;100169.44;4962263;28;20783;-75
2023/07/05 09:34:23;;;;;;;4.40;3.50;;;;;;;22.61;66.88;100165.22;4962608;28;20202;-75
2023/07/05 09:36:49;;;;;;;3.80;3.23;;;;;;;22.61;68.11;100170.50;4941784;28;20210;-74
2023/07/05 09:39:27;;;;;;;3.63;3.33;;;;;;;22.68;67.83;100174.44;4944423;28;20270;-75
2023/07/05 09:41:58;;;;;;;4.90;3.73;;;;;;;22.77;67.42;100171.22;4947765;28;20178;-75
2023/07/05 09:44:23;;;;;;;4.47;3.40;;;;;;;22.58;66.87;100170.69;4980285;28;20872;-75
2023/07/05 09:46:49;;;;;;;4.50;3.17;;;;;;;22.58;68.76;100170.69;4945068;28;20225;-74
2023/07/05 09:49:16;;;;;;;5.13;3.43;;;;;;;22.49;69.83;100187.91;4962163;28;20313;-75
2023/07/05 09:51:46;;;;;;;4.13;3.50;;;;;;;22.59;68.90;100185.56;4961631;28;20221;-75
2023/07/05 09:54:20;;;;;;;3.30;3.00;;;;;;;22.65;69.27;100193.94;4948402;28;20190;-75
2023/07/05 09:57:25;;;;;;;3.20;2.73;;;;;;;22.82;66.27;100197.34;4945523;28;20217;-75
2023/07/05 09:59:52;;;;;;;4.20;2.90;;;;;;;22.82;65.58;100189.41;4980027;28;20658;-75
2023/07/05 10:02:23;;;;;;;3.50;2.83;;;;;;;23.17;63.28;100191.63;4942915;28;20273;-75
2023/07/05 10:04:51;;;;;;;4.30;2.63;;;;;;;23.35;62.84;100187.00;4942690;28;20195;-76
2023/07/05 10:07:25;;;;;;;3.17;2.77;;;;;;;23.42;62.84;100201.50;4936667;28;20225;-76
2023/07/05 10:09:59;;;;;;;3.37;2.70;;;;;;;22.84;63.79;100208.63;4945476;28;20186;-75
2023/07/05 10:12:30;;;;;;;3.30;2.57;;;;;;;22.98;62.21;100206.00;4959692;28;20621;-75
2023/07/05 10:14:56;;;;;;;3.30;2.43;;;;;;;23.00;62.88;100216.44;4947050;28;20186;-75
2023/07/05 10:17:23;;;;;;;3.27;2.57;;;;;;;22.99;62.28;100212.09;4947931;28;20225;-75
2023/07/05 10:19:55;;;;;;;3.37;2.50;;;;;;;22.98;62.81;100218.31;4947582;28;20601;-75
2023/07/05 10:22:34;;;;;;;2.97;2.33;;;;;;;22.99;63.44;100207.66;4949101;29;20207;-75
2023/07/05 10:25:16;;;;;;;3.73;2.67;;;;;;;22.98;62.97;100211.28;4945331;28;20218;-75
2023/07/05 10:27:43;;;;;;;3.23;2.27;;;;;;;22.80;63.07;100212.41;4945049;28;20746;-76
2023/07/05 10:30:15;;;;;;;2.97;2.67;;;;;;;22.86;62.72;100206.72;4947969;28;20183;-74
2023/07/05 10:32:42;;;;;;;4.23;2.20;;;;;;;22.90;63.51;100216.16;4951662;28;20194;-74
2023/07/05 10:35:43;;;;;;;4.70;2.73;;;;;;;22.99;64.41;100201.53;4951101;29;20187;-74
2023/07/05 10:38:19;;;;;;;2.90;2.43;;;;;;;23.33;63.25;100203.88;4958678;28;20219;-74
2023/07/05 10:40:44;;;;;;;2.30;2.10;;;;;;;23.46;61.72;100210.06;4950026;28;20590;-73
2023/07/05 10:43:11;;;;;;;2.50;2.20;;;;;;;23.55;61.10;100204.19;4952311;28;20182;-74
2023/07/05 10:45:36;;;;;;;2.33;2.13;;;;;;;23.55;60.34;100203.34;4956511;28;20186;-73
2023/07/05 10:48:02;;;;;;;2.60;2.40;;;;;;;23.56;61.11;100200.63;4966659;28;20189;-74
2023/07/05 10:50:33;;;;;;;2.57;2.30;;;;;;;23.62;61.01;100198.50;4989216;28;20186;-74
2023/07/05 10:53:21;;;;;;;3.17;2.70;;;;;;;23.74;61.05;100189.78;4971510;28;20256;-74
2023/07/05 10:56:03;;;;;;;2.73;2.53;;;;;;;23.84;60.06;100205.84;4973748;28;21920;-74
2023/07/05 10:58:40;;;;;;;2.50;2.30;;;;;;;23.92;59.53;100200.06;4950762;29;21040;-75
2023/07/05 11:01:32;;;;;;;2.83;2.20;;;;;;;23.84;59.08;100197.94;4951364;28;20178;-75
2023/07/05 11:04:05;;;;;;;3.23;2.33;;;;;;;23.80;58.54;100205.22;4954433;28;20197;-74
2023/07/05 11:06:35;;;;;;;4.00;2.33;;;;;;;23.79;57.71;100198.25;4949984;28;20213;-76
2023/07/05 11:09:01;;;;;;;3.30;2.30;;;;;;;23.75;58.64;100202.88;4950886;28;20190;-74
2023/07/05 11:11:30;;;;;;;3.13;2.40;;;;;;;23.63;57.88;100198.41;4950862;28;20276;-74
2023/07/05 11:14:03;;;;;;;2.80;2.33;;;;;;;23.47;59.14;100195.91;4952546;28;20186;-75
2023/07/05 11:16:29;;;;;;;5.07;2.80;;;;;;;23.56;60.65;100197.09;4950167;28;20237;-75
2023/07/05 11:19:11;;;;;;;3.67;2.67;;;;;;;23.57;58.77;100204.94;4952146;28;20187;-75
2023/07/05 11:21:46;;;;;;;2.67;2.43;;;;;;;23.68;59.07;100200.75;4950411;28;20187;-74
2023/07/05 11:24:32;;;;;;;2.87;2.03;;;;;;;23.68;59.47;100206.88;4950332;28;20193;-75
2023/07/05 11:26:59;;;;;;;2.30;2.10;;;;;;;23.73;57.98;100199.50;4949616;28;20210;-75
2023/07/05 11:29:27;;;;;;;3.53;2.27;;;;;;;23.71;58.38;100193.47;4949845;28;20194;-74
2023/07/05 11:31:53;;;;;;;2.63;2.27;;;;;;;23.82;57.78;100203.34;4981655;28;20203;-74
2023/07/05 11:34:21;;;;;;;3.10;2.47;;;;;;;23.86;58.03;100198.69;4964174;28;20837;-74